sensor_id;sensor_type;location;lat;lon;timestamp;pressure;altitude;pressure_sealevel;temperature;humidity
31082;BME280;17737;52.586;13.284;2023-03-30T00:00:10;100673.47;;;9.27;77.94
31082;BME280;17737;52.586;13.284;2023-03-30T00:02:46;100664.88;;;9.24;77.69
31082;BME280;17737;52.586;13.284;2023-03-30T00:05:17;100664.03;;;9.23;78.24
31082;BME280;17737;52.586;13.284;2023-03-30T00:07:46;100660.47;;;9.23;78.58
31082;BME280;17737;52.586;13.284;2023-03-30T00:10:16;100661.81;;;9.19;79.06
31082;BME280;17737;52.586;13.284;2023-03-30T00:12:46;100655.09;;;9.15;79.08
31082;BME280;17737;52.586;13.284;2023-03-30T00:15:19;100657.59;;;9.16;79.18
31082;BME280;17737;52.586;13.284;2023-03-30T00:17:50;100652.22;;;9.16;79.81
31082;BME280;17737;52.586;13.284;2023-03-30T00:20:21;100638.63;;;9.18;79.33
31082;BME280;17737;52.586;13.284;2023-03-30T00:22:49;100646.66;;;9.10;80.12
31082;BME280;17737;52.586;13.284;2023-03-30T00:25:17;100644.31;;;9.15;80.24
31082;BME280;17737;52.586;13.284;2023-03-30T00:27:45;100641.63;;;9.15;79.90
31082;BME280;17737;52.586;13.284;2023-03-30T00:30:15;100627.16;;;9.08;81.03
31082;BME280;17737;52.586;13.284;2023-03-30T00:32:44;100643.00;;;9.11;79.91
31082;BME280;17737;52.586;13.284;2023-03-30T00:35:14;100627.69;;;9.11;81.06
31082;BME280;17737;52.586;13.284;2023-03-30T00:37:42;100622.31;;;9.19;80.86
31082;BME280;17737;52.586;13.284;2023-03-30T00:40:14;100618.78;;;9.11;80.54
31082;BME280;17737;52.586;13.284;2023-03-30T00:42:45;100624.44;;;9.00;80.50
31082;BME280;17737;52.586;13.284;2023-03-30T00:45:20;100614.84;;;8.97;81.59
31082;BME280;17737;52.586;13.284;2023-03-30T00:47:55;100604.00;;;9.07;81.88
31082;BME280;17737;52.586;13.284;2023-03-30T00:50:32;100610.50;;;8.96;82.36
31082;BME280;17737;52.586;13.284;2023-03-30T00:53:09;100601.91;;;8.93;83.34
31082;BME280;17737;52.586;13.284;2023-03-30T00:55:42;100596.19;;;8.96;82.92
31082;BME280;17737;52.586;13.284;2023-03-30T00:58:14;100585.78;;;8.93;84.03
31082;BME280;17737;52.586;13.284;2023-03-30T01:00:44;100581.13;;;9.03;82.95
31082;BME280;17737;52.586;13.284;2023-03-30T01:03:16;100569.66;;;8.93;83.80
31082;BME280;17737;52.586;13.284;2023-03-30T01:05:51;100566.09;;;8.84;85.13
31082;BME280;17737;52.586;13.284;2023-03-30T01:08:20;100562.25;;;8.87;85.06
31082;BME280;17737;52.586;13.284;2023-03-30T01:10:52;100554.66;;;8.82;85.33
31082;BME280;17737;52.586;13.284;2023-03-30T01:13:21;100555.00;;;8.79;85.98
31082;BME280;17737;52.586;13.284;2023-03-30T01:15:58;100545.44;;;8.77;86.08
31082;BME280;17737;52.586;13.284;2023-03-30T01:18:43;100546.59;;;8.74;86.57
31082;BME280;17737;52.586;13.284;2023-03-30T01:21:57;100531.78;;;8.70;87.38
31082;BME280;17737;52.586;13.284;2023-03-30T01:28:17;100512.84;;;8.72;86.42
31082;BME280;17737;52.586;13.284;2023-03-30T01:31:19;100518.22;;;8.72;87.20
31082;BME280;17737;52.586;13.284;2023-03-30T01:34:22;100507.47;;;8.72;87.31
31082;BME280;17737;52.586;13.284;2023-03-30T01:37:25;100503.41;;;8.68;88.00
31082;BME280;17737;52.586;13.284;2023-03-30T01:40:14;100496.72;;;8.72;87.50
31082;BME280;17737;52.586;13.284;2023-03-30T01:42:52;100489.66;;;8.71;87.50
31082;BME280;17737;52.586;13.284;2023-03-30T01:45:30;100492.69;;;8.76;87.12
31082;BME280;17737;52.586;13.284;2023-03-30T01:48:12;100497.38;;;8.66;87.71
31082;BME280;17737;52.586;13.284;2023-03-30T01:50:48;100502.41;;;8.69;87.59
31082;BME280;17737;52.586;13.284;2023-03-30T01:53:24;100497.03;;;8.69;88.34
31082;BME280;17737;52.586;13.284;2023-03-30T01:56:02;100500.22;;;8.64;88.51
31082;BME280;17737;52.586;13.284;2023-03-30T01:58:38;100497.00;;;8.61;88.68
31082;BME280;17737;52.586;13.284;2023-03-30T02:01:11;100498.69;;;8.62;88.82
31082;BME280;17737;52.586;13.284;2023-03-30T02:03:46;100494.00;;;8.64;88.95
31082;BME280;17737;52.586;13.284;2023-03-30T02:06:23;100494.00;;;8.64;89.05
31082;BME280;17737;52.586;13.284;2023-03-30T02:09:05;100488.47;;;8.65;88.34
31082;BME280;17737;52.586;13.284;2023-03-30T02:11:40;100485.94;;;8.64;88.00
31082;BME280;17737;52.586;13.284;2023-03-30T02:14:13;100481.59;;;8.63;88.59
31082;BME280;17737;52.586;13.284;2023-03-30T02:16:46;100474.22;;;8.65;88.34
31082;BME280;17737;52.586;13.284;2023-03-30T02:19:15;100467.66;;;8.67;88.07
31082;BME280;17737;52.586;13.284;2023-03-30T02:21:44;100471.53;;;8.65;88.03
31082;BME280;17737;52.586;13.284;2023-03-30T02:24:15;100471.03;;;8.69;87.80
31082;BME280;17737;52.586;13.284;2023-03-30T02:26:49;100458.44;;;8.70;88.03
31082;BME280;17737;52.586;13.284;2023-03-30T02:29:25;100459.75;;;8.66;87.92
31082;BME280;17737;52.586;13.284;2023-03-30T02:31:55;100461.59;;;8.65;87.95
31082;BME280;17737;52.586;13.284;2023-03-30T02:34:39;100455.41;;;8.65;87.29
31082;BME280;17737;52.586;13.284;2023-03-30T02:37:44;100435.25;;;8.69;87.22
31082;BME280;17737;52.586;13.284;2023-03-30T02:40:32;100426.22;;;8.70;87.30
31082;BME280;17737;52.586;13.284;2023-03-30T02:43:22;100417.31;;;8.69;87.20
31082;BME280;17737;52.586;13.284;2023-03-30T02:46:00;100416.47;;;8.69;86.79
31082;BME280;17737;52.586;13.284;2023-03-30T02:48:44;100407.06;;;8.65;86.66
31082;BME280;17737;52.586;13.284;2023-03-30T02:51:32;100409.41;;;8.68;86.56
31082;BME280;17737;52.586;13.284;2023-03-30T02:54:13;100402.69;;;8.64;86.62
31082;BME280;17737;52.586;13.284;2023-03-30T02:56:55;100402.34;;;8.67;86.61
31082;BME280;17737;52.586;13.284;2023-03-30T02:59:38;100411.09;;;8.69;86.35
31082;BME280;17737;52.586;13.284;2023-03-30T03:02:18;100394.28;;;8.67;86.70
31082;BME280;17737;52.586;13.284;2023-03-30T03:04:52;100393.13;;;8.69;85.85
31082;BME280;17737;52.586;13.284;2023-03-30T03:07:23;100393.31;;;8.68;86.35
31082;BME280;17737;52.586;13.284;2023-03-30T03:09:53;100384.72;;;8.64;86.17
31082;BME280;17737;52.586;13.284;2023-03-30T03:12:21;100379.19;;;8.66;86.57
31082;BME280;17737;52.586;13.284;2023-03-30T03:14:50;100380.88;;;8.67;86.60
31082;BME280;17737;52.586;13.284;2023-03-30T03:17:19;100378.69;;;8.70;86.25
31082;BME280;17737;52.586;13.284;2023-03-30T03:19:47;100372.50;;;8.70;86.11
31082;BME280;17737;52.586;13.284;2023-03-30T03:22:16;100370.13;;;8.67;86.32
31082;BME280;17737;52.586;13.284;2023-03-30T03:24:44;100370.63;;;8.70;86.13
31082;BME280;17737;52.586;13.284;2023-03-30T03:27:11;100362.09;;;8.75;86.27
31082;BME280;17737;52.586;13.284;2023-03-30T03:29:39;100361.94;;;8.68;86.55
31082;BME280;17737;52.586;13.284;2023-03-30T03:32:09;100359.88;;;8.70;86.68
31082;BME280;17737;52.586;13.284;2023-03-30T03:34:37;100361.59;;;8.79;86.21
31082;BME280;17737;52.586;13.284;2023-03-30T03:37:05;100369.13;;;8.76;86.17
31082;BME280;17737;52.586;13.284;2023-03-30T03:39:33;100354.22;;;8.81;86.37
31082;BME280;17737;52.586;13.284;2023-03-30T03:42:03;100352.19;;;8.91;86.00
31082;BME280;17737;52.586;13.284;2023-03-30T03:44:31;100348.50;;;8.92;85.64
31082;BME280;17737;52.586;13.284;2023-03-30T03:47:01;100341.78;;;8.88;85.29
31082;BME280;17737;52.586;13.284;2023-03-30T03:49:30;100337.09;;;8.90;85.75
31082;BME280;17737;52.586;13.284;2023-03-30T03:51:58;100331.06;;;8.88;85.75
31082;BME280;17737;52.586;13.284;2023-03-30T03:54:26;100325.16;;;8.93;85.53
31082;BME280;17737;52.586;13.284;2023-03-30T03:56:54;100318.81;;;8.94;85.33
31082;BME280;17737;52.586;13.284;2023-03-30T03:59:22;100306.00;;;8.96;85.58
31082;BME280;17737;52.586;13.284;2023-03-30T04:01:50;100310.41;;;8.97;85.51
31082;BME280;17737;52.586;13.284;2023-03-30T04:04:18;100317.28;;;8.91;85.24
31082;BME280;17737;52.586;13.284;2023-03-30T04:06:47;100310.06;;;8.92;85.87
31082;BME280;17737;52.586;13.284;2023-03-30T04:09:15;100296.28;;;9.03;85.00
31082;BME280;17737;52.586;13.284;2023-03-30T04:11:44;100298.28;;;9.01;85.35
31082;BME280;17737;52.586;13.284;2023-03-30T04:14:12;100294.09;;;8.98;85.08
31082;BME280;17737;52.586;13.284;2023-03-30T04:16:40;100291.41;;;8.98;85.21
31082;BME280;17737;52.586;13.284;2023-03-30T04:19:09;100294.25;;;9.05;85.21
31082;BME280;17737;52.586;13.284;2023-03-30T04:21:38;100296.63;;;9.00;85.09
31082;BME280;17737;52.586;13.284;2023-03-30T04:24:13;100299.81;;;9.03;84.44
31082;BME280;17737;52.586;13.284;2023-03-30T04:26:43;100303.66;;;9.01;84.84
31082;BME280;17737;52.586;13.284;2023-03-30T04:29:14;100291.59;;;8.97;84.82
31082;BME280;17737;52.586;13.284;2023-03-30T04:31:43;100292.41;;;9.05;84.64
31082;BME280;17737;52.586;13.284;2023-03-30T04:34:12;100294.25;;;9.05;84.69
31082;BME280;17737;52.586;13.284;2023-03-30T04:36:40;100286.03;;;9.06;84.34
31082;BME280;17737;52.586;13.284;2023-03-30T04:39:09;100277.63;;;9.09;84.21
31082;BME280;17737;52.586;13.284;2023-03-30T04:41:40;100267.72;;;9.10;84.44
31082;BME280;17737;52.586;13.284;2023-03-30T04:44:11;100266.19;;;9.15;83.58
31082;BME280;17737;52.586;13.284;2023-03-30T04:46:39;100266.38;;;9.14;83.76
31082;BME280;17737;52.586;13.284;2023-03-30T04:49:07;100269.25;;;9.12;84.23
31082;BME280;17737;52.586;13.284;2023-03-30T04:51:35;100273.44;;;9.07;84.31
31082;BME280;17737;52.586;13.284;2023-03-30T04:54:03;100271.06;;;9.12;84.36
31082;BME280;17737;52.586;13.284;2023-03-30T04:56:31;100268.06;;;9.07;84.05
31082;BME280;17737;52.586;13.284;2023-03-30T04:59:00;100265.03;;;9.10;84.10
31082;BME280;17737;52.586;13.284;2023-03-30T05:01:28;100258.97;;;9.08;84.22
31082;BME280;17737;52.586;13.284;2023-03-30T05:03:57;100258.97;;;9.16;84.11
31082;BME280;17737;52.586;13.284;2023-03-30T05:06:25;100254.94;;;9.20;83.97
31082;BME280;17737;52.586;13.284;2023-03-30T05:08:55;100256.94;;;9.18;83.58
31082;BME280;17737;52.586;13.284;2023-03-30T05:11:23;100256.63;;;9.21;83.63
31082;BME280;17737;52.586;13.284;2023-03-30T05:13:52;100250.72;;;9.25;83.68
31082;BME280;17737;52.586;13.284;2023-03-30T05:16:21;100238.13;;;9.26;83.37
31082;BME280;17737;52.586;13.284;2023-03-30T05:18:49;100226.84;;;9.30;83.34
31082;BME280;17737;52.586;13.284;2023-03-30T05:21:17;100212.56;;;9.38;83.17
31082;BME280;17737;52.586;13.284;2023-03-30T05:23:46;100202.97;;;9.35;82.82
31082;BME280;17737;52.586;13.284;2023-03-30T05:26:14;100207.31;;;9.36;82.57
31082;BME280;17737;52.586;13.284;2023-03-30T05:28:42;100206.31;;;9.37;83.11
31082;BME280;17737;52.586;13.284;2023-03-30T05:31:10;100200.47;;;9.34;82.79
31082;BME280;17737;52.586;13.284;2023-03-30T05:33:39;100210.19;;;9.35;82.72
31082;BME280;17737;52.586;13.284;2023-03-30T05:36:09;100214.56;;;9.36;82.78
31082;BME280;17737;52.586;13.284;2023-03-30T05:38:37;100221.97;;;9.34;82.87
31082;BME280;17737;52.586;13.284;2023-03-30T05:41:06;100221.28;;;9.32;82.59
31082;BME280;17737;52.586;13.284;2023-03-30T05:43:34;100216.09;;;9.30;83.39
31082;BME280;17737;52.586;13.284;2023-03-30T05:46:03;100219.09;;;9.35;83.13
31082;BME280;17737;52.586;13.284;2023-03-30T05:48:31;100213.91;;;9.34;82.61
31082;BME280;17737;52.586;13.284;2023-03-30T05:51:01;100206.81;;;9.41;82.35
31082;BME280;17737;52.586;13.284;2023-03-30T05:53:29;100203.81;;;9.36;83.13
31082;BME280;17737;52.586;13.284;2023-03-30T05:55:57;100199.78;;;9.32;82.59
31082;BME280;17737;52.586;13.284;2023-03-30T05:58:25;100202.13;;;9.35;82.56
31082;BME280;17737;52.586;13.284;2023-03-30T06:00:56;100203.09;;;9.42;82.54
31082;BME280;17737;52.586;13.284;2023-03-30T06:03:24;100195.75;;;9.36;82.60
31082;BME280;17737;52.586;13.284;2023-03-30T06:05:52;100185.13;;;9.42;81.96
31082;BME280;17737;52.586;13.284;2023-03-30T06:08:22;100179.22;;;9.55;81.68
31082;BME280;17737;52.586;13.284;2023-03-30T06:10:53;100172.38;;;9.67;81.11
31082;BME280;17737;52.586;13.284;2023-03-30T06:13:23;100175.94;;;9.67;81.17
31082;BME280;17737;52.586;13.284;2023-03-30T06:15:51;100183.63;;;9.79;80.35
31082;BME280;17737;52.586;13.284;2023-03-30T06:18:19;100178.75;;;9.74;80.84
31082;BME280;17737;52.586;13.284;2023-03-30T06:20:48;100178.91;;;9.81;80.73
31082;BME280;17737;52.586;13.284;2023-03-30T06:23:17;100171.75;;;9.96;80.08
31082;BME280;17737;52.586;13.284;2023-03-30T06:25:47;100177.88;;;10.12;79.49
31082;BME280;17737;52.586;13.284;2023-03-30T06:28:18;100174.41;;;10.26;78.97
31082;BME280;17737;52.586;13.284;2023-03-30T06:30:46;100170.44;;;10.37;78.53
31082;BME280;17737;52.586;13.284;2023-03-30T06:33:15;100168.97;;;10.49;77.57
31082;BME280;17737;52.586;13.284;2023-03-30T06:35:44;100172.59;;;10.41;77.39
31082;BME280;17737;52.586;13.284;2023-03-30T06:38:13;100177.31;;;10.39;77.01
31082;BME280;17737;52.586;13.284;2023-03-30T06:40:41;100169.06;;;10.41;77.54
31082;BME280;17737;52.586;13.284;2023-03-30T06:43:15;100167.81;;;10.51;77.69
31082;BME280;17737;52.586;13.284;2023-03-30T06:45:48;100168.00;;;10.64;77.31
31082;BME280;17737;52.586;13.284;2023-03-30T06:48:17;100169.13;;;10.70;76.47
31082;BME280;17737;52.586;13.284;2023-03-30T06:50:46;100171.72;;;10.63;76.07
31082;BME280;17737;52.586;13.284;2023-03-30T06:53:14;100166.44;;;10.55;76.92
31082;BME280;17737;52.586;13.284;2023-03-30T06:55:43;100160.28;;;10.61;77.32
31082;BME280;17737;52.586;13.284;2023-03-30T06:58:13;100149.44;;;10.69;76.64
31082;BME280;17737;52.586;13.284;2023-03-30T07:00:41;100150.00;;;10.79;76.71
31082;BME280;17737;52.586;13.284;2023-03-30T07:03:09;100147.25;;;10.88;76.10
31082;BME280;17737;52.586;13.284;2023-03-30T07:05:37;100146.03;;;10.90;75.95
31082;BME280;17737;52.586;13.284;2023-03-30T07:08:06;100150.00;;;10.79;76.18
31082;BME280;17737;52.586;13.284;2023-03-30T07:10:34;100142.56;;;10.81;75.85
31082;BME280;17737;52.586;13.284;2023-03-30T07:13:02;100137.66;;;10.85;75.84
31082;BME280;17737;52.586;13.284;2023-03-30T07:15:32;100134.50;;;11.25;75.62
31082;BME280;17737;52.586;13.284;2023-03-30T07:18:00;100136.72;;;11.36;74.64
31082;BME280;17737;52.586;13.284;2023-03-30T07:20:28;100139.59;;;11.64;73.76
31082;BME280;17737;52.586;13.284;2023-03-30T07:22:56;100128.97;;;11.98;72.90
31082;BME280;17737;52.586;13.284;2023-03-30T07:25:24;100126.19;;;11.91;71.88
31082;BME280;17737;52.586;13.284;2023-03-30T07:27:52;100119.50;;;11.87;71.89
31082;BME280;17737;52.586;13.284;2023-03-30T07:30:21;100111.06;;;11.97;72.12
31082;BME280;17737;52.586;13.284;2023-03-30T07:32:50;100108.97;;;12.14;71.75
31082;BME280;17737;52.586;13.284;2023-03-30T07:35:21;100103.78;;;12.12;71.37
31082;BME280;17737;52.586;13.284;2023-03-30T07:37:49;100096.53;;;12.19;70.84
31082;BME280;17737;52.586;13.284;2023-03-30T07:40:17;100092.69;;;12.28;70.46
31082;BME280;17737;52.586;13.284;2023-03-30T07:42:46;100095.84;;;12.59;70.03
31082;BME280;17737;52.586;13.284;2023-03-30T07:45:16;100104.84;;;13.00;68.70
31082;BME280;17737;52.586;13.284;2023-03-30T07:47:44;100105.16;;;13.12;67.32
31082;BME280;17737;52.586;13.284;2023-03-30T07:50:13;100103.28;;;13.12;67.61
31082;BME280;17737;52.586;13.284;2023-03-30T07:52:41;100088.91;;;13.05;68.05
31082;BME280;17737;52.586;13.284;2023-03-30T07:55:09;100088.94;;;13.12;67.86
31082;BME280;17737;52.586;13.284;2023-03-30T07:57:38;100090.84;;;13.24;67.06
31082;BME280;17737;52.586;13.284;2023-03-30T08:00:07;100085.16;;;13.06;67.33
31082;BME280;17737;52.586;13.284;2023-03-30T08:02:37;100087.34;;;13.31;67.24
31082;BME280;17737;52.586;13.284;2023-03-30T08:05:06;100092.00;;;13.50;65.79
31082;BME280;17737;52.586;13.284;2023-03-30T08:07:36;100097.56;;;13.42;65.91
31082;BME280;17737;52.586;13.284;2023-03-30T08:10:05;100088.66;;;13.41;65.63
31082;BME280;17737;52.586;13.284;2023-03-30T08:12:33;100096.53;;;13.36;65.87
31082;BME280;17737;52.586;13.284;2023-03-30T08:15:02;100097.19;;;13.45;65.80
31082;BME280;17737;52.586;13.284;2023-03-30T08:17:30;100090.50;;;13.41;65.58
31082;BME280;17737;52.586;13.284;2023-03-30T08:19:58;100090.72;;;13.46;64.56
31082;BME280;17737;52.586;13.284;2023-03-30T08:22:27;100087.22;;;13.52;64.84
31082;BME280;17737;52.586;13.284;2023-03-30T08:24:56;100077.84;;;13.48;64.72
31082;BME280;17737;52.586;13.284;2023-03-30T08:27:24;100079.94;;;13.59;65.22
31082;BME280;17737;52.586;13.284;2023-03-30T08:29:52;100073.75;;;13.84;63.89
31082;BME280;17737;52.586;13.284;2023-03-30T08:32:20;100066.91;;;13.95;63.27
31082;BME280;17737;52.586;13.284;2023-03-30T08:34:48;100064.63;;;14.11;62.45
31082;BME280;17737;52.586;13.284;2023-03-30T08:37:16;100063.78;;;13.98;62.45
31082;BME280;17737;52.586;13.284;2023-03-30T08:39:44;100049.63;;;14.22;62.12
31082;BME280;17737;52.586;13.284;2023-03-30T08:42:34;100061.31;;;14.42;61.75
31082;BME280;17737;52.586;13.284;2023-03-30T08:45:21;100056.69;;;14.75;60.41
31082;BME280;17737;52.586;13.284;2023-03-30T08:47:51;100067.09;;;14.85;59.75
31082;BME280;17737;52.586;13.284;2023-03-30T08:50:29;100050.47;;;14.62;59.77
31082;BME280;17737;52.586;13.284;2023-03-30T08:53:00;100039.22;;;14.52;59.68
31082;BME280;17737;52.586;13.284;2023-03-30T08:55:30;100041.06;;;14.77;59.76
31082;BME280;17737;52.586;13.284;2023-03-30T08:58:10;100050.38;;;15.01;59.12
31082;BME280;17737;52.586;13.284;2023-03-30T09:00:48;100038.03;;;15.11;58.53
31082;BME280;17737;52.586;13.284;2023-03-30T09:03:26;100048.91;;;15.05;58.49
31082;BME280;17737;52.586;13.284;2023-03-30T09:06:05;100045.09;;;15.25;58.26
31082;BME280;17737;52.586;13.284;2023-03-30T09:08:37;100046.38;;;15.61;57.40
31082;BME280;17737;52.586;13.284;2023-03-30T09:11:12;100038.81;;;15.69;57.31
31082;BME280;17737;52.586;13.284;2023-03-30T09:13:47;100045.00;;;15.83;56.60
31082;BME280;17737;52.586;13.284;2023-03-30T09:16:21;100047.94;;;15.81;56.39
31082;BME280;17737;52.586;13.284;2023-03-30T09:19:02;100042.28;;;15.83;56.06
31082;BME280;17737;52.586;13.284;2023-03-30T09:21:39;100032.66;;;15.87;55.58
31082;BME280;17737;52.586;13.284;2023-03-30T09:24:11;100032.53;;;15.69;56.10
31082;BME280;17737;52.586;13.284;2023-03-30T09:26:49;100030.81;;;15.81;55.48
31082;BME280;17737;52.586;13.284;2023-03-30T09:29:29;100035.38;;;15.80;55.70
31082;BME280;17737;52.586;13.284;2023-03-30T09:32:03;100031.41;;;15.83;55.86
31082;BME280;17737;52.586;13.284;2023-03-30T09:34:44;100024.31;;;15.82;55.81
31082;BME280;17737;52.586;13.284;2023-03-30T09:37:14;100036.53;;;15.97;55.49
31082;BME280;17737;52.586;13.284;2023-03-30T09:39:45;100037.53;;;16.03;55.65
31082;BME280;17737;52.586;13.284;2023-03-30T09:42:24;100041.44;;;15.82;56.00
31082;BME280;17737;52.586;13.284;2023-03-30T09:45:05;100038.09;;;15.80;56.03
31082;BME280;17737;52.586;13.284;2023-03-30T09:47:40;100035.09;;;15.95;55.85
31082;BME280;17737;52.586;13.284;2023-03-30T09:50:10;100034.81;;;16.03;55.47
31082;BME280;17737;52.586;13.284;2023-03-30T09:52:54;100031.22;;;16.09;55.79
31082;BME280;17737;52.586;13.284;2023-03-30T09:55:27;100037.31;;;16.04;55.47
31082;BME280;17737;52.586;13.284;2023-03-30T09:58:11;100038.88;;;16.18;55.62
31082;BME280;17737;52.586;13.284;2023-03-30T10:00:45;100047.72;;;16.14;55.70
31082;BME280;17737;52.586;13.284;2023-03-30T10:03:26;100045.00;;;16.07;55.34
31082;BME280;17737;52.586;13.284;2023-03-30T10:06:03;100053.97;;;16.14;55.51
31082;BME280;17737;52.586;13.284;2023-03-30T10:08:39;100055.16;;;15.94;56.15
31082;BME280;17737;52.586;13.284;2023-03-30T10:11:10;100057.00;;;16.24;55.78
31082;BME280;17737;52.586;13.284;2023-03-30T10:13:41;100049.63;;;16.07;55.85
31082;BME280;17737;52.586;13.284;2023-03-30T10:16:20;100053.91;;;16.21;55.52
31082;BME280;17737;52.586;13.284;2023-03-30T10:18:53;100055.19;;;16.18;55.65
31082;BME280;17737;52.586;13.284;2023-03-30T10:21:29;100055.72;;;16.02;56.23
31082;BME280;17737;52.586;13.284;2023-03-30T10:24:01;100048.97;;;16.11;55.96
31082;BME280;17737;52.586;13.284;2023-03-30T10:26:35;100064.81;;;16.14;56.09
31082;BME280;17737;52.586;13.284;2023-03-30T10:29:05;100055.81;;;16.20;56.12
31082;BME280;17737;52.586;13.284;2023-03-30T10:31:41;100072.00;;;16.33;56.02
31082;BME280;17737;52.586;13.284;2023-03-30T10:34:14;100064.59;;;16.47;55.70
31082;BME280;17737;52.586;13.284;2023-03-30T10:36:47;100060.84;;;16.48;55.69
31082;BME280;17737;52.586;13.284;2023-03-30T10:39:22;100047.00;;;16.49;55.80
31082;BME280;17737;52.586;13.284;2023-03-30T10:41:55;100042.06;;;16.64;55.56
31082;BME280;17737;52.586;13.284;2023-03-30T10:44:30;100045.16;;;16.68;55.22
31082;BME280;17737;52.586;13.284;2023-03-30T10:47:15;100041.97;;;16.71;55.08
31082;BME280;17737;52.586;13.284;2023-03-30T10:50:00;100040.94;;;16.90;54.70
31082;BME280;17737;52.586;13.284;2023-03-30T10:52:50;100035.81;;;17.00;54.57
31082;BME280;17737;52.586;13.284;2023-03-30T10:55:38;100022.44;;;16.99;54.63
31082;BME280;17737;52.586;13.284;2023-03-30T10:58:18;100024.78;;;16.95;54.72
31082;BME280;17737;52.586;13.284;2023-03-30T11:01:07;100015.78;;;16.77;54.83
31082;BME280;17737;52.586;13.284;2023-03-30T11:03:46;100026.34;;;17.03;54.44
31082;BME280;17737;52.586;13.284;2023-03-30T11:06:21;100021.50;;;17.05;54.53
31082;BME280;17737;52.586;13.284;2023-03-30T11:08:55;100029.53;;;16.82;55.13
31082;BME280;17737;52.586;13.284;2023-03-30T11:11:32;100028.69;;;16.99;54.70
31082;BME280;17737;52.586;13.284;2023-03-30T11:14:09;100028.91;;;16.98;54.81
31082;BME280;17737;52.586;13.284;2023-03-30T11:16:46;100020.28;;;17.19;55.01
31082;BME280;17737;52.586;13.284;2023-03-30T11:19:22;100022.84;;;17.50;53.80
31082;BME280;17737;52.586;13.284;2023-03-30T11:21:59;100020.78;;;17.63;53.49
31082;BME280;17737;52.586;13.284;2023-03-30T11:24:35;100010.50;;;17.65;53.42
31082;BME280;17737;52.586;13.284;2023-03-30T11:27:13;100004.53;;;17.39;54.17
31082;BME280;17737;52.586;13.284;2023-03-30T11:29:48;99998.16;;;16.97;55.18
31082;BME280;17737;52.586;13.284;2023-03-30T11:32:26;100011.78;;;16.97;55.44
31082;BME280;17737;52.586;13.284;2023-03-30T11:35:08;100008.94;;;17.22;55.57
31082;BME280;17737;52.586;13.284;2023-03-30T11:37:47;100005.63;;;17.20;55.21
31082;BME280;17737;52.586;13.284;2023-03-30T11:40:24;100000.09;;;17.26;55.28
31082;BME280;17737;52.586;13.284;2023-03-30T11:43:01;99993.69;;;16.85;56.30
31082;BME280;17737;52.586;13.284;2023-03-30T11:45:51;99983.94;;;16.77;56.57
31082;BME280;17737;52.586;13.284;2023-03-30T11:48:44;99990.97;;;16.66;56.99
31082;BME280;17737;52.586;13.284;2023-03-30T11:51:37;99980.50;;;16.70;57.06
31082;BME280;17737;52.586;13.284;2023-03-30T11:57:34;99972.00;;;16.96;56.71
31082;BME280;17737;52.586;13.284;2023-03-30T12:00:21;99973.72;;;16.91;56.84
31082;BME280;17737;52.586;13.284;2023-03-30T12:03:03;99964.56;;;17.21;56.32
31082;BME280;17737;52.586;13.284;2023-03-30T12:05:43;99955.94;;;17.06;56.63
31082;BME280;17737;52.586;13.284;2023-03-30T12:08:25;99947.03;;;16.99;56.72
31082;BME280;17737;52.586;13.284;2023-03-30T12:11:16;99944.50;;;17.04;56.89
31082;BME280;17737;52.586;13.284;2023-03-30T12:13:53;99935.56;;;17.27;56.10
31082;BME280;17737;52.586;13.284;2023-03-30T12:16:26;99945.69;;;17.38;55.90
31082;BME280;17737;52.586;13.284;2023-03-30T12:19:09;99933.97;;;17.37;56.05
31082;BME280;17737;52.586;13.284;2023-03-30T12:21:48;99927.13;;;17.87;55.17
31082;BME280;17737;52.586;13.284;2023-03-30T12:24:27;99917.50;;;17.62;55.57
31082;BME280;17737;52.586;13.284;2023-03-30T12:27:00;99909.22;;;17.80;55.14
31082;BME280;17737;52.586;13.284;2023-03-30T12:29:43;99898.44;;;18.08;54.71
31082;BME280;17737;52.586;13.284;2023-03-30T12:32:29;99896.66;;;18.25;53.54
31082;BME280;17737;52.586;13.284;2023-03-30T12:38:35;99876.41;;;17.86;54.21
31082;BME280;17737;52.586;13.284;2023-03-30T12:41:08;99866.81;;;17.96;54.05
31082;BME280;17737;52.586;13.284;2023-03-30T12:43:56;99866.34;;;17.87;54.20
31082;BME280;17737;52.586;13.284;2023-03-30T12:46:41;99858.75;;;18.01;53.63
31082;BME280;17737;52.586;13.284;2023-03-30T12:49:34;99854.44;;;18.51;52.53
31082;BME280;17737;52.586;13.284;2023-03-30T12:52:13;99851.09;;;18.60;51.95
31082;BME280;17737;52.586;13.284;2023-03-30T12:55:01;99833.94;;;18.37;52.16
31082;BME280;17737;52.586;13.284;2023-03-30T12:57:50;99831.34;;;18.42;52.45
31082;BME280;17737;52.586;13.284;2023-03-30T13:00:46;99838.00;;;18.11;53.05
31082;BME280;17737;52.586;13.284;2023-03-30T13:03:36;99831.34;;;18.19;53.01
31082;BME280;17737;52.586;13.284;2023-03-30T13:06:19;99821.41;;;18.13;52.98
31082;BME280;17737;52.586;13.284;2023-03-30T13:09:01;99830.06;;;18.10;52.93
31082;BME280;17737;52.586;13.284;2023-03-30T13:12:19;99815.22;;;18.17;52.35
31082;BME280;17737;52.586;13.284;2023-03-30T13:15:00;99814.00;;;18.48;51.92
31082;BME280;17737;52.586;13.284;2023-03-30T13:17:48;99809.19;;;18.66;51.40
31082;BME280;17737;52.586;13.284;2023-03-30T13:20:31;99808.31;;;18.38;52.04
31082;BME280;17737;52.586;13.284;2023-03-30T13:23:22;99813.34;;;18.18;52.61
31082;BME280;17737;52.586;13.284;2023-03-30T13:26:03;99812.78;;;17.92;52.85
31082;BME280;17737;52.586;13.284;2023-03-30T13:28:52;99814.56;;;17.75;53.05
31082;BME280;17737;52.586;13.284;2023-03-30T13:31:54;99810.59;;;17.37;53.67